Time;durP1;ratioP1;P1;durP2;ratioP2;P2;SDS_P1;SDS_P2;PMS_P1;PMS_P2;Temp;Humidity;BMP_temperature;BMP_pressure;BME280_temperature;BME280_humidity;BME280_pressure;Samples;Min_cycle;Max_cycle;Signal;HPM_P1;HPM_P2
2021/10/22 00:00:55;;;;;;;13.75;12.45;;;;;;;30.08;19.33;94565.91;4955850;29;20043;-70
2021/10/22 00:03:22;;;;;;;15.15;12.85;;;;;;;29.95;19.66;94574.91;4944244;29;20040;-69
2021/10/22 00:05:49;;;;;;;14.27;12.82;;;;;;;30.31;19.09;94567.13;4951341;29;20051;-69
2021/10/22 00:08:16;;;;;;;14.57;12.50;;;;;;;30.21;18.99;94568.06;4954923;29;20054;-68
2021/10/22 00:10:44;;;;;;;14.15;12.77;;;;;;;30.35;19.05;94567.84;4955911;29;20050;-71
2021/10/22 00:13:11;;;;;;;13.30;11.90;;;;;;;30.07;19.12;94575.16;4955329;29;20066;-63
2021/10/22 00:15:38;;;;;;;15.07;11.82;;;;;;;30.24;19.16;94572.63;4956063;29;20043;-71
2021/10/22 00:18:05;;;;;;;15.38;12.40;;;;;;;30.26;18.94;94575.69;4955866;29;20047;-70
2021/10/22 00:20:33;;;;;;;14.07;12.55;;;;;;;30.16;19.06;94565.78;4955910;29;20495;-69
2021/10/22 00:23:00;;;;;;;13.55;12.00;;;;;;;30.21;19.08;94562.66;4955658;28;20066;-69
2021/10/22 00:25:27;;;;;;;15.82;13.20;;;;;;;30.28;18.88;94573.34;4955131;28;20051;-69
2021/10/22 00:27:54;;;;;;;13.98;12.20;;;;;;;30.68;18.52;94561.56;4955818;29;20407;-69
2021/10/22 00:30:21;;;;;;;13.45;12.00;;;;;;;30.30;18.81;94571.00;4955722;29;20062;-69
2021/10/22 00:32:48;;;;;;;14.27;11.95;;;;;;;30.41;18.66;94560.03;4955541;29;20442;-70
2021/10/22 00:35:15;;;;;;;14.35;11.23;;;;;;;30.27;18.84;94556.41;4955052;29;20078;-67
2021/10/22 00:37:42;;;;;;;13.30;11.27;;;;;;;30.31;18.70;94572.50;4955646;29;20366;-68
2021/10/22 00:40:10;;;;;;;13.05;11.75;;;;;;;30.11;19.06;94560.84;4955857;29;20055;-70
2021/10/22 00:42:37;;;;;;;12.35;11.23;;;;;;;30.18;18.87;94566.16;4955451;29;20054;-65
2021/10/22 00:45:07;;;;;;;12.55;11.43;;;;;;;30.02;19.08;94556.72;4955420;29;20046;-68
2021/10/22 00:47:35;;;;;;;11.98;10.63;;;;;;;30.01;19.03;94560.56;4962185;29;20058;-71
2021/10/22 00:50:03;;;;;;;13.02;11.63;;;;;;;29.83;19.19;94560.03;4955337;29;20082;-69
2021/10/22 00:52:31;;;;;;;12.93;11.63;;;;;;;29.72;19.48;94562.13;4955362;28;20055;-68
2021/10/22 00:54:58;;;;;;;12.90;11.50;;;;;;;29.76;19.29;94560.13;4957179;28;20402;-64
2021/10/22 00:57:25;;;;;;;13.63;10.90;;;;;;;29.54;19.41;94569.63;4959325;29;20051;-71
2021/10/22 00:59:57;;;;;;;12.70;11.20;;;;;;;29.50;19.53;94575.06;4959300;29;20058;-68
2021/10/22 01:02:25;;;;;;;13.23;11.90;;;;;;;29.45;19.58;94568.19;4958369;29;20043;-57
2021/10/22 01:04:52;;;;;;;12.02;10.82;;;;;;;29.30;19.66;94566.78;4959036;29;20446;-69
2021/10/22 01:07:19;;;;;;;13.02;11.45;;;;;;;29.15;20.25;94570.81;4959162;29;20043;-64
2021/10/22 01:09:46;;;;;;;12.35;11.25;;;;;;;29.20;20.33;94566.91;4954728;29;20062;-69
2021/10/22 01:12:14;;;;;;;12.95;11.65;;;;;;;29.24;19.88;94573.00;4944003;29;20054;-69
2021/10/22 01:14:41;;;;;;;12.75;11.55;;;;;;;29.46;19.80;94575.09;4958726;29;20055;-69
2021/10/22 01:17:30;;;;;;;13.52;11.43;;;;;;;29.28;20.26;94569.13;4959021;29;20051;-69
2021/10/22 01:19:57;;;;;;;13.52;12.20;;;;;;;29.18;20.35;94572.69;4958935;29;20489;-69
2021/10/22 01:22:24;;;;;;;12.90;11.60;;;;;;;29.15;20.09;94576.19;4958457;29;20047;-69
2021/10/22 01:24:51;;;;;;;13.52;12.20;;;;;;;29.18;20.02;94572.69;4957992;28;20035;-69
2021/10/22 01:27:18;;;;;;;12.80;11.60;;;;;;;29.06;19.86;94567.81;4958886;29;20051;-69
2021/10/22 01:29:45;;;;;;;12.20;10.95;;;;;;;28.83;20.25;94563.75;4958827;29;20046;-70
2021/10/22 01:32:12;;;;;;;12.73;11.43;;;;;;;28.97;20.03;94576.34;4958407;29;20054;-69
2021/10/22 01:34:39;;;;;;;12.93;11.18;;;;;;;29.05;20.22;94571.66;4957260;29;20058;-69
2021/10/22 01:37:07;;;;;;;12.77;11.40;;;;;;;29.05;20.13;94577.81;4958883;29;20366;-69
2021/10/22 01:39:34;;;;;;;11.40;10.02;;;;;;;29.11;19.91;94575.44;4958521;29;20066;-69
2021/10/22 01:42:01;;;;;;;12.13;10.77;;;;;;;28.82;20.29;94580.28;4958466;28;20043;-69
2021/10/22 01:44:30;;;;;;;12.32;11.02;;;;;;;28.90;20.25;94575.66;4958307;29;20058;-69
2021/10/22 01:46:57;;;;;;;11.95;10.55;;;;;;;28.89;20.08;94579.47;4958582;29;20047;-69
2021/10/22 01:49:24;;;;;;;12.25;11.05;;;;;;;28.72;20.28;94570.38;4958858;28;20058;-69
2021/10/22 01:51:52;;;;;;;12.85;11.30;;;;;;;28.80;20.03;94572.59;4957961;28;20055;-69
2021/10/22 01:54:19;;;;;;;12.20;11.00;;;;;;;29.07;19.89;94574.72;4948465;28;20054;-71
2021/10/22 01:56:46;;;;;;;12.98;11.50;;;;;;;29.08;20.17;94573.53;4957025;29;20336;-70
2021/10/22 01:59:14;;;;;;;12.57;11.38;;;;;;;28.90;20.06;94570.28;4957999;29;20047;-68
2021/10/22 02:01:41;;;;;;;11.30;10.20;;;;;;;28.95;20.33;94577.91;4958028;29;20054;-63
2021/10/22 02:04:08;;;;;;;11.25;10.23;;;;;;;29.15;19.93;94576.19;4957807;28;20512;-70
2021/10/22 02:06:35;;;;;;;11.50;10.40;;;;;;;29.21;20.06;94579.97;4948357;29;20047;-70
2021/10/22 02:09:02;;;;;;;12.20;10.80;;;;;;;28.46;20.70;94574.44;4938670;29;20062;-72
2021/10/22 02:11:29;;;;;;;14.57;11.38;;;;;;;28.94;20.31;94573.69;4938689;29;20058;-72
2021/10/22 02:13:56;;;;;;;13.70;10.70;;;;;;;29.19;20.06;94582.28;4954705;29;20062;-70
2021/10/22 02:16:24;;;;;;;13.80;11.88;;;;;;;29.18;19.80;94583.47;4957653;29;20726;-72
2021/10/22 02:18:51;;;;;;;14.23;11.75;;;;;;;29.08;20.12;94587.75;4957776;29;20062;-69
2021/10/22 02:21:19;;;;;;;12.23;10.70;;;;;;;29.09;19.89;94593.91;4957601;29;20081;-72
2021/10/22 02:23:46;;;;;;;11.90;10.80;;;;;;;29.35;19.70;94595.19;4956908;28;20054;-73
2021/10/22 02:26:14;;;;;;;11.60;10.40;;;;;;;29.09;19.72;94599.28;4957486;29;20062;-70
2021/10/22 02:28:41;;;;;;;12.38;11.07;;;;;;;29.30;19.46;94590.25;4957734;29;20062;-69
2021/10/22 02:31:08;;;;;;;13.07;10.93;;;;;;;29.14;19.79;94601.53;4957605;29;20051;-69
2021/10/22 02:33:36;;;;;;;13.02;10.55;;;;;;;29.00;19.91;94602.44;4957300;29;20051;-70
2021/10/22 02:36:04;;;;;;;12.38;10.93;;;;;;;28.59;20.16;94610.44;4947879;29;20063;-69
2021/10/22 02:38:32;;;;;;;11.60;10.50;;;;;;;28.62;20.40;94606.94;4938173;29;20370;-65
2021/10/22 02:40:59;;;;;;;18.33;11.23;;;;;;;28.89;19.99;94606.38;4937785;29;20055;-69
2021/10/22 02:43:26;;;;;;;11.95;10.75;;;;;;;28.81;20.02;94611.78;4948399;29;20062;-69
2021/10/22 02:45:53;;;;;;;12.63;11.35;;;;;;;28.85;20.00;94617.94;4957121;29;20054;-62
2021/10/22 02:48:20;;;;;;;12.35;10.50;;;;;;;28.76;20.03;94609.53;4957365;29;20450;-70
2021/10/22 02:50:47;;;;;;;13.07;11.75;;;;;;;29.00;19.80;94621.28;4957137;29;20055;-69
2021/10/22 02:53:14;;;;;;;14.18;12.68;;;;;;;29.28;19.63;94622.97;4952885;29;20374;-69
2021/10/22 02:55:42;;;;;;;13.02;11.82;;;;;;;28.61;20.09;94624.25;4955050;28;20058;-69
2021/10/22 02:58:09;;;;;;;13.23;11.65;;;;;;;28.75;19.96;94618.78;4941683;29;20048;-69
2021/10/22 03:00:36;;;;;;;14.80;13.30;;;;;;;28.54;20.04;94624.28;4937700;29;20062;-69
2021/10/22 03:03:04;;;;;;;13.95;12.45;;;;;;;28.57;20.14;94626.19;4945605;29;20051;-69
2021/10/22 03:05:32;;;;;;;14.38;12.88;;;;;;;28.67;19.63;94636.13;4956811;29;20051;-69
2021/10/22 03:08:00;;;;;;;17.20;12.98;;;;;;;28.43;20.08;94623.63;4956876;29;20043;-69
2021/10/22 03:10:27;;;;;;;18.83;14.13;;;;;;;28.79;20.08;94638.34;4956647;29;20410;-69
2021/10/22 03:12:54;;;;;;;15.73;13.73;;;;;;;28.47;20.18;94640.47;4956668;29;20397;-69
2021/10/22 03:15:21;;;;;;;18.40;13.23;;;;;;;29.05;19.77;94641.63;4956581;29;20062;-69
2021/10/22 03:17:48;;;;;;;14.55;13.02;;;;;;;28.51;20.30;94641.22;4956406;28;20051;-69
2021/10/22 03:20:16;;;;;;;13.88;12.48;;;;;;;28.64;19.83;94634.22;4956689;29;20058;-70
2021/10/22 03:22:43;;;;;;;15.60;14.00;;;;;;;29.24;19.57;94643.75;4956372;29;20382;-69
2021/10/22 03:25:10;;;;;;;14.88;13.48;;;;;;;28.99;19.98;94637.84;4955844;28;20039;-69
2021/10/22 03:27:37;;;;;;;14.30;12.90;;;;;;;29.13;19.58;94638.47;4956600;29;20061;-69
2021/10/22 03:30:06;;;;;;;13.77;12.48;;;;;;;28.87;19.77;94631.00;4956515;29;20046;-70
2021/10/22 03:32:33;;;;;;;14.38;12.60;;;;;;;29.22;19.60;94632.63;4955211;29;20062;-70
2021/10/22 03:35:01;;;;;;;14.23;12.45;;;;;;;28.65;20.10;94630.38;4956172;29;20055;-69
2021/10/22 03:37:28;;;;;;;14.30;11.98;;;;;;;28.53;19.92;94633.53;4956311;29;20443;-69
2021/10/22 03:39:55;;;;;;;14.90;13.32;;;;;;;28.13;20.53;94638.34;4956166;29;20051;-70
2021/10/22 03:42:22;;;;;;;13.80;12.40;;;;;;;28.36;20.48;94631.69;4952421;29;20047;-69
2021/10/22 03:44:50;;;;;;;14.68;13.23;;;;;;;28.52;20.37;94637.38;4956336;29;20053;-72
2021/10/22 03:47:18;;;;;;;15.35;12.98;;;;;;;28.78;20.12;94634.13;4956269;29;20039;-69
2021/10/22 03:49:45;;;;;;;14.13;12.73;;;;;;;28.84;19.95;94637.91;4956392;28;20055;-69
2021/10/22 03:52:12;;;;;;;14.75;13.25;;;;;;;28.66;20.01;94634.59;4941205;29;20455;-70
2021/10/22 03:54:39;;;;;;;13.57;12.27;;;;;;;28.60;20.28;94641.53;4954864;28;20363;-72
2021/10/22 03:57:06;;;;;;;13.55;12.25;;;;;;;28.41;20.41;94647.44;4955284;29;20059;-70
2021/10/22 03:59:36;;;;;;;13.82;12.43;;;;;;;28.47;20.33;94637.78;4955439;29;20046;-68
2021/10/22 04:02:04;;;;;;;14.60;13.10;;;;;;;28.17;20.46;94649.84;4949406;29;20047;-70
2021/10/22 04:04:31;;;;;;;15.65;12.90;;;;;;;28.42;20.21;94648.97;4937101;29;20043;-69
2021/10/22 04:07:00;;;;;;;15.15;12.60;;;;;;;28.42;20.48;94643.59;4952854;29;20058;-69
2021/10/22 04:09:30;;;;;;;13.85;12.30;;;;;;;28.21;20.47;94645.22;4955788;29;20497;-69
2021/10/22 04:11:58;;;;;;;14.13;12.38;;;;;;;28.21;20.19;94642.50;4955836;29;20051;-69
2021/10/22 04:14:25;;;;;;;16.17;12.60;;;;;;;28.35;20.51;94644.38;4955891;29;20047;-69
2021/10/22 04:16:55;;;;;;;13.80;12.40;;;;;;;28.06;20.58;94654.47;4955751;29;20051;-69
2021/10/22 04:19:24;;;;;;;14.15;12.60;;;;;;;28.32;20.13;94647.09;4955758;29;20055;-70
2021/10/22 04:21:51;;;;;;;17.42;13.77;;;;;;;28.33;20.31;94648.63;4955560;29;20054;-67
2021/10/22 04:24:19;;;;;;;15.98;13.95;;;;;;;28.29;20.28;94645.94;4955775;28;20054;-70
2021/10/22 04:26:46;;;;;;;17.33;13.13;;;;;;;28.43;19.75;94639.75;4954972;29;20124;-68
2021/10/22 04:29:13;;;;;;;14.80;12.75;;;;;;;27.83;20.75;94640.75;4957464;28;20063;-68
2021/10/22 04:31:41;;;;;;;16.85;13.93;;;;;;;28.11;20.53;94642.59;4959687;29;20047;-71
2021/10/22 04:34:09;;;;;;;15.00;12.85;;;;;;;27.88;20.72;94637.69;4959977;29;20050;-69
2021/10/22 04:36:38;;;;;;;14.10;12.60;;;;;;;28.12;20.47;94642.19;4959295;29;20070;-69
2021/10/22 04:41:52;;;;;;;11.63;10.43;;;;;;;30.88;19.31;94634.47;4940078;29;20060;-67
2021/10/22 04:44:19;;;;;;;14.77;10.35;;;;;;;31.20;19.34;94636.69;4938521;29;20051;-60
2021/10/22 04:46:46;;;;;;;14.18;11.68;;;;;;;32.12;17.48;94636.16;4949164;28;20062;-57
2021/10/22 04:49:14;;;;;;;13.57;10.95;;;;;;;32.74;16.75;94646.03;4946753;29;20062;-66
2021/10/22 04:51:41;;;;;;;23.48;11.77;;;;;;;33.31;16.19;94644.72;4949970;29;20047;-64
2021/10/22 04:54:09;;;;;;;19.05;10.07;;;;;;;34.57;15.92;94643.59;4957779;28;20066;-57
2021/10/22 04:56:36;;;;;;;28.55;12.65;;;;;;;33.06;16.60;94634.50;4952537;29;20055;-61
2021/10/22 04:59:03;;;;;;;19.15;11.38;;;;;;;32.76;17.08;94642.91;4959450;29;20369;-57
2021/10/22 05:01:31;;;;;;;16.58;11.43;;;;;;;33.09;16.17;94643.72;4959582;29;20058;-55
2021/10/22 05:03:58;;;;;;;18.10;11.00;;;;;;;32.75;17.10;94644.84;4959505;29;20054;-57
2021/10/22 05:06:25;;;;;;;17.98;11.25;;;;;;;32.90;16.83;94653.44;4959225;29;20051;-57
2021/10/22 05:08:52;;;;;;;17.52;12.60;;;;;;;31.76;17.14;94644.22;4959160;29;20393;-60
2021/10/22 05:11:19;;;;;;;18.65;12.57;;;;;;;31.41;17.33;94648.28;4948137;29;20054;-65
2021/10/22 05:13:46;;;;;;;17.80;12.25;;;;;;;31.34;17.44;94646.50;4948937;29;20745;-63
2021/10/22 05:16:13;;;;;;;17.80;12.57;;;;;;;31.47;17.53;94654.75;4958891;29;20054;-59
2021/10/22 05:18:40;;;;;;;19.55;13.20;;;;;;;30.98;18.17;94651.69;4958821;29;20073;-56
2021/10/22 05:21:07;;;;;;;16.30;12.10;;;;;;;30.94;17.89;94656.38;4952254;29;20047;-52
2021/10/22 05:23:34;;;;;;;18.42;13.45;;;;;;;30.78;18.37;94653.56;4940927;28;20048;-61
2021/10/22 05:26:01;;;;;;;14.80;12.48;;;;;;;30.88;18.02;94666.09;4958587;29;20047;-58
2021/10/22 05:28:29;;;;;;;20.85;14.05;;;;;;;30.89;18.28;94664.94;4958458;29;20043;-59
2021/10/22 05:30:56;;;;;;;17.65;13.38;;;;;;;31.06;18.19;94661.19;4958037;29;20051;-58
2021/10/22 05:33:23;;;;;;;16.25;14.20;;;;;;;31.38;17.59;94670.72;4958880;29;20051;-58
2021/10/22 05:35:51;;;;;;;18.73;14.30;;;;;;;31.02;18.08;94674.00;4958136;29;20377;-62
2021/10/22 05:38:18;;;;;;;22.63;14.65;;;;;;;31.47;17.64;94689.84;4958283;29;20477;-62
2021/10/22 05:40:45;;;;;;;21.52;13.43;;;;;;;31.35;17.68;94685.06;4958432;28;20442;-61
2021/10/22 05:43:12;;;;;;;18.65;12.98;;;;;;;31.46;17.88;94699.13;4958089;29;20062;-59
2021/10/22 05:45:39;;;;;;;18.05;14.15;;;;;;;31.60;17.87;94705.06;4957501;29;20526;-59
2021/10/22 05:48:06;;;;;;;17.42;15.20;;;;;;;31.39;18.05;94701.97;4958129;29;20051;-57
2021/10/22 05:50:33;;;;;;;17.15;15.20;;;;;;;31.58;17.88;94703.97;4958293;29;20485;-61
2021/10/22 05:53:00;;;;;;;28.25;22.75;;;;;;;31.48;17.57;94713.00;4958566;28;20043;-59
2021/10/22 05:55:29;;;;;;;42.05;27.75;;;;;;;32.01;17.18;94724.81;4957519;28;20050;-58
2021/10/22 05:57:56;;;;;;;34.50;29.55;;;;;;;31.98;16.81;94728.34;4951754;29;20054;-59
2021/10/22 06:00:23;;;;;;;37.03;29.08;;;;;;;32.12;16.75;94715.34;4957998;29;20047;-59
2021/10/22 06:02:53;;;;;;;35.47;28.63;;;;;;;32.30;17.09;94720.44;4958181;29;20052;-59
2021/10/22 06:05:20;;;;;;;32.28;26.38;;;;;;;32.35;17.05;94728.06;4958091;29;20461;-57
2021/10/22 06:07:47;;;;;;;34.45;26.65;;;;;;;32.56;16.69;94729.56;4957684;29;20073;-57
2021/10/22 06:10:14;;;;;;;33.83;27.00;;;;;;;32.78;16.62;94737.97;4957886;28;20370;-57
2021/10/22 06:12:41;;;;;;;34.67;26.23;;;;;;;32.73;16.62;94730.34;4958444;28;20058;-60
2021/10/22 06:15:08;;;;;;;30.55;24.35;;;;;;;32.68;16.72;94733.56;4945023;29;20051;-59
2021/10/22 06:17:36;;;;;;;31.00;25.10;;;;;;;30.31;19.07;94734.28;4946357;29;20450;-57
2021/10/22 06:20:11;;;;;;;24.17;21.58;;;;;;;32.06;17.15;94738.63;4939643;29;20462;-63
2021/10/22 06:25:25;;;;;;;20.92;16.73;;;;;;;33.21;15.86;94742.47;4936653;29;20050;-55
2021/10/22 06:27:52;;;;;;;16.70;14.60;;;;;;;33.21;16.22;94742.47;4945509;29;20047;-56
2021/10/22 06:30:19;;;;;;;16.52;13.77;;;;;;;33.36;15.46;94749.09;4957529;29;20055;-57
2021/10/22 06:32:47;;;;;;;14.40;12.35;;;;;;;33.55;15.60;94753.66;4953715;29;20058;-57
2021/10/22 06:35:14;;;;;;;15.68;14.02;;;;;;;33.58;15.28;94758.25;4938445;29;20052;-58
2021/10/22 06:37:41;;;;;;;19.00;14.38;;;;;;;34.08;14.99;94756.97;4955326;29;20047;-53
2021/10/22 06:40:09;;;;;;;15.55;13.32;;;;;;;34.07;15.28;94758.16;4957087;29;20362;-53
2021/10/22 06:42:36;;;;;;;18.13;13.88;;;;;;;33.99;14.84;94756.84;4957550;29;20477;-54
2021/10/22 06:45:03;;;;;;;15.88;13.25;;;;;;;34.17;14.87;94762.56;4957193;29;20058;-56
2021/10/22 06:47:30;;;;;;;14.52;13.02;;;;;;;34.12;15.27;94760.38;4957071;29;20054;-57
2021/10/22 06:49:57;;;;;;;21.30;13.98;;;;;;;34.29;14.84;94764.53;4957044;29;20050;-61
2021/10/22 06:52:25;;;;;;;15.25;13.45;;;;;;;34.41;14.64;94765.81;4956741;28;20055;-64
2021/10/22 06:54:53;;;;;;;18.10;14.45;;;;;;;34.69;14.81;94772.38;4950458;28;20094;-62
2021/10/22 06:57:21;;;;;;;46.92;38.72;;;;;;;34.85;14.64;94772.31;4956953;29;20098;-59
2021/10/22 06:59:48;;;;;;;52.17;42.17;;;;;;;35.15;14.57;94773.00;4956728;29;20085;-59
2021/10/22 07:02:15;;;;;;;55.00;44.53;;;;;;;35.21;14.47;94771.25;4953622;29;20358;-62
2021/10/22 07:04:48;;;;;;;61.17;45.83;;;;;;;35.20;14.47;94775.16;4937936;29;20380;-60
2021/10/22 07:07:16;;;;;;;53.00;43.60;;;;;;;35.34;14.09;94773.97;4950759;29;20054;-60
2021/10/22 07:09:44;;;;;;;50.85;42.75;;;;;;;35.53;13.79;94778.41;4956700;29;20489;-64
2021/10/22 07:12:12;;;;;;;51.15;42.17;;;;;;;35.63;14.05;94779.25;4956927;28;20481;-57
2021/10/22 07:14:48;;;;;;;47.45;40.00;;;;;;;35.98;13.81;94778.13;4956882;29;20366;-63
2021/10/22 07:17:15;;;;;;;42.25;38.05;;;;;;;36.00;13.31;94775.72;4956479;29;20047;-58
2021/10/22 07:19:42;;;;;;;40.90;36.95;;;;;;;35.97;13.61;94775.84;4956184;29;20066;-60
2021/10/22 07:22:13;;;;;;;38.63;35.08;;;;;;;36.23;13.33;94782.72;4933042;29;20048;-61
2021/10/22 07:24:41;;;;;;;63.88;57.67;;;;;;;36.22;13.44;94780.44;4947613;28;20047;-60
2021/10/22 07:27:08;;;;;;;198.20;72.80;;;;;;;36.38;13.51;94780.28;4956460;29;20043;-61
2021/10/22 07:29:35;;;;;;;60.72;55.15;;;;;;;36.02;13.80;94778.75;4956492;29;20057;-62
2021/10/22 07:32:02;;;;;;;39.97;36.30;;;;;;;36.82;13.25;94783.00;4956506;29;20477;-62
2021/10/22 07:34:29;;;;;;;31.52;28.85;;;;;;;36.28;13.27;94770.50;4956417;29;20050;-59
2021/10/22 07:36:56;;;;;;;18.30;15.45;;;;;;;36.85;13.25;94774.69;4956184;29;20738;-57
2021/10/22 07:39:24;;;;;;;17.75;15.15;;;;;;;36.18;13.89;94783.28;4954981;29;20070;-57
2021/10/22 07:41:51;;;;;;;20.33;16.08;;;;;;;36.11;13.87;94776.09;4955674;29;20043;-59
2021/10/22 07:44:19;;;;;;;19.33;15.60;;;;;;;35.90;14.21;94776.81;4956411;29;20055;-58
2021/10/22 07:46:47;;;;;;;24.48;15.27;;;;;;;36.29;14.23;94780.19;4956069;29;20047;-60
2021/10/22 07:49:14;;;;;;;16.60;14.65;;;;;;;35.05;14.71;94776.78;4955912;29;20425;-59
2021/10/22 07:51:41;;;;;;;16.60;14.90;;;;;;;34.89;14.93;94775.72;4956148;29;20051;-60
2021/10/22 07:54:09;;;;;;;18.83;15.75;;;;;;;34.92;14.95;94776.78;4955795;28;20055;-58
2021/10/22 07:56:37;;;;;;;17.80;15.82;;;;;;;34.69;15.30;94769.66;4955915;29;20047;-59
2021/10/22 07:59:04;;;;;;;25.75;16.50;;;;;;;34.40;15.33;94779.81;4955917;29;20055;-61
2021/10/22 08:01:32;;;;;;;18.63;15.82;;;;;;;34.67;15.27;94769.34;4956066;29;20064;-57
2021/10/22 08:03:59;;;;;;;20.15;15.63;;;;;;;34.47;15.47;94779.59;4955168;28;20055;-60
2021/10/22 08:06:26;;;;;;;18.23;15.65;;;;;;;34.18;15.64;94783.06;4955838;29;20039;-56
2021/10/22 08:08:54;;;;;;;17.50;15.73;;;;;;;34.01;15.65;94778.88;4954967;29;20051;-59
2021/10/22 08:11:21;;;;;;;19.42;16.80;;;;;;;34.06;15.57;94789.19;4955599;29;20047;-59
2021/10/22 08:13:49;;;;;;;20.95;17.67;;;;;;;33.78;15.80;94779.03;4943879;29;20403;-55
2021/10/22 08:16:16;;;;;;;22.25;18.58;;;;;;;33.42;16.21;94782.63;4939539;29;20047;-61
2021/10/22 08:18:43;;;;;;;22.55;19.02;;;;;;;33.45;15.94;94783.72;4955946;29;20058;-58
2021/10/22 08:21:22;;;;;;;27.77;19.58;;;;;;;33.53;15.98;94790.50;4955561;29;20047;-60
2021/10/22 08:23:49;;;;;;;20.75;17.33;;;;;;;33.50;16.28;94783.22;4955348;28;20051;-61
2021/10/22 08:26:17;;;;;;;22.23;18.05;;;;;;;33.31;16.47;94779.34;4953006;29;20054;-56
2021/10/22 08:28:45;;;;;;;19.85;17.08;;;;;;;33.21;16.68;94777.66;4955796;29;20055;-58
2021/10/22 08:31:15;;;;;;;19.77;16.77;;;;;;;33.16;16.06;94781.66;4955502;29;20055;-55
2021/10/22 08:33:42;;;;;;;17.63;15.60;;;;;;;33.21;15.99;94791.22;4956016;28;20051;-62
2021/10/22 08:36:12;;;;;;;19.42;17.45;;;;;;;33.19;16.16;94782.75;4954500;29;20047;-57
2021/10/22 08:38:40;;;;;;;20.05;16.98;;;;;;;32.95;16.85;94784.81;4955905;29;20047;-58
2021/10/22 08:41:13;;;;;;;20.35;18.00;;;;;;;33.10;16.54;94781.41;4955570;29;20050;-59
2021/10/22 08:43:41;;;;;;;21.48;16.92;;;;;;;32.94;17.05;94786.00;4956280;29;20360;-58
2021/10/22 08:46:13;;;;;;;24.52;19.10;;;;;;;32.87;16.47;94789.63;4955938;29;20043;-62
2021/10/22 08:48:41;;;;;;;42.85;38.00;;;;;;;33.01;16.91;94789.31;4955741;29;20485;-61
2021/10/22 08:51:08;;;;;;;31.75;25.60;;;;;;;33.18;16.50;94790.09;4955746;29;20047;-57
2021/10/22 08:53:38;;;;;;;21.42;18.85;;;;;;;32.98;16.59;94784.75;4955337;28;20051;-59
2021/10/22 08:56:06;;;;;;;27.98;23.63;;;;;;;32.66;16.95;94779.22;4955890;29;20059;-58
2021/10/22 08:58:33;;;;;;;27.00;22.38;;;;;;;33.06;16.76;94775.28;4956003;29;20489;-57
2021/10/22 09:01:00;;;;;;;21.25;19.05;;;;;;;33.21;16.98;94778.44;4955430;29;20476;-57
2021/10/22 09:03:37;;;;;;;23.33;18.10;;;;;;;33.22;16.85;94788.09;4955829;29;20047;-58
2021/10/22 09:06:12;;;;;;;23.00;16.40;;;;;;;33.15;17.17;94782.06;4955252;29;20481;-59
2021/10/22 09:08:43;;;;;;;31.17;17.05;;;;;;;33.41;16.84;94778.41;4938602;29;20051;-61
2021/10/22 09:11:33;;;;;;;22.02;16.63;;;;;;;33.47;16.62;94781.34;4955161;29;20047;-56
2021/10/22 09:14:13;;;;;;;25.80;21.52;;;;;;;33.32;16.98;94772.81;4955507;28;20450;-56
2021/10/22 09:16:41;;;;;;;31.20;27.65;;;;;;;33.65;16.83;94770.84;4958646;29;20051;-56
2021/10/22 09:19:08;;;;;;;25.73;21.77;;;;;;;33.77;16.21;94770.16;4959391;28;20047;-56
2021/10/22 09:21:35;;;;;;;23.45;17.50;;;;;;;33.57;16.55;94769.47;4958306;29;20051;-57
2021/10/22 09:24:21;;;;;;;22.38;17.23;;;;;;;33.49;16.86;94774.31;4958370;28;20054;-57
2021/10/22 09:26:55;;;;;;;21.92;16.67;;;;;;;33.48;17.24;94767.38;4958591;29;20051;-57
2021/10/22 09:29:25;;;;;;;19.00;16.05;;;;;;;33.07;17.60;94766.00;4958935;29;20054;-55
2021/10/22 09:31:56;;;;;;;41.55;32.30;;;;;;;33.29;17.40;94760.06;4958388;29;20081;-56
2021/10/22 09:34:35;;;;;;;31.88;28.13;;;;;;;33.28;17.06;94755.81;4958703;29;20059;-61
2021/10/22 09:37:04;;;;;;;43.50;35.83;;;;;;;33.46;17.45;94753.50;4958793;28;20055;-58
2021/10/22 09:39:36;;;;;;;34.78;30.15;;;;;;;33.32;17.54;94753.84;4958894;29;20047;-59
2021/10/22 09:42:24;;;;;;;24.25;19.63;;;;;;;33.81;16.99;94757.25;4958220;29;20047;-61
2021/10/22 09:44:51;;;;;;;19.00;16.98;;;;;;;34.07;17.31;94760.88;4939394;29;20051;-57
2021/10/22 09:47:20;;;;;;;20.83;18.42;;;;;;;34.06;16.71;94751.22;4947632;29;20054;-61
2021/10/22 09:49:52;;;;;;;22.58;17.33;;;;;;;33.82;17.31;94747.19;4958209;29;20054;-61
2021/10/22 09:52:27;;;;;;;22.85;18.10;;;;;;;33.97;16.71;94753.78;4958165;29;20051;-56
2021/10/22 09:55:12;;;;;;;19.75;16.35;;;;;;;34.36;16.71;94752.03;4957904;28;20059;-58
2021/10/22 09:57:41;;;;;;;20.95;17.02;;;;;;;34.30;16.77;94747.06;4957716;29;20090;-59
2021/10/22 10:00:14;;;;;;;17.98;15.85;;;;;;;34.19;16.92;94749.31;4957792;29;20047;-58
2021/10/22 10:02:42;;;;;;;21.05;16.08;;;;;;;34.28;16.78;94741.31;4958282;29;20090;-61
2021/10/22 10:05:12;;;;;;;18.17;15.45;;;;;;;34.46;16.99;94734.66;4958174;29;20056;-59
2021/10/22 10:07:40;;;;;;;18.02;16.10;;;;;;;34.55;16.78;94732.06;4952538;29;20067;-59
2021/10/22 10:10:09;;;;;;;18.42;15.88;;;;;;;34.72;16.70;94728.09;4938770;29;20473;-62
2021/10/22 10:12:37;;;;;;;20.13;15.52;;;;;;;35.01;16.91;94719.84;4958133;29;20047;-59
2021/10/22 10:15:05;;;;;;;34.60;29.13;;;;;;;35.03;17.43;94716.72;4958039;29;20358;-63
2021/10/22 10:17:50;;;;;;;43.28;38.58;;;;;;;35.17;17.18;94716.28;4957570;29;20469;-62
2021/10/22 10:20:23;;;;;;;22.75;20.35;;;;;;;35.13;16.52;94716.38;4938167;29;20052;-58
2021/10/22 10:22:52;;;;;;;16.48;12.27;;;;;;;35.22;16.95;94713.00;4956464;29;20066;-61
2021/10/22 10:25:22;;;;;;;17.45;11.15;;;;;;;35.23;16.46;94706.38;4955361;28;20057;-74
2021/10/22 10:27:52;;;;;;;14.43;10.45;;;;;;;35.31;16.45;94715.81;4959040;28;20055;-47
2021/10/22 10:30:30;;;;;;;8.75;7.82;;;;;;;34.59;16.86;94705.56;4953820;29;20054;-48
2021/10/22 10:32:57;;;;;;;8.52;6.38;;;;;;;34.00;17.90;94714.97;4957372;29;20051;-47
2021/10/22 10:35:27;;;;;;;9.43;6.70;;;;;;;34.37;17.69;94715.56;4949092;28;20363;-47
2021/10/22 10:37:54;;;;;;;9.10;7.00;;;;;;;34.57;17.64;94707.97;4948778;29;20047;-47
2021/10/22 10:40:23;;;;;;;11.02;7.05;;;;;;;34.80;17.30;94707.66;4949027;29;20058;-46
2021/10/22 10:42:52;;;;;;;7.63;6.82;;;;;;;34.47;18.04;94709.03;4957464;29;20053;-48
2021/10/22 10:45:25;;;;;;;7.50;6.78;;;;;;;34.62;17.35;94704.75;4957444;29;20051;-52
2021/10/22 10:47:59;;;;;;;6.95;6.25;;;;;;;34.71;17.77;94702.13;4957528;28;20051;-59
2021/10/22 10:50:46;;;;;;;12.43;11.10;;;;;;;35.16;16.73;94698.47;4955845;29;20051;-58
2021/10/22 10:53:38;;;;;;;18.10;12.75;;;;;;;35.28;16.55;94694.94;4957181;29;20055;-48
2021/10/22 10:56:43;;;;;;;17.40;12.85;;;;;;;35.20;16.47;94697.13;4937901;29;20067;-48
2021/10/22 10:59:10;;;;;;;22.40;13.68;;;;;;;35.26;16.41;94683.00;4957393;28;21215;-62
2021/10/22 11:01:39;;;;;;;19.92;13.13;;;;;;;35.16;16.85;94684.88;4955427;29;20051;-51
2021/10/22 11:04:07;;;;;;;14.20;12.68;;;;;;;35.68;15.81;94680.84;4957218;29;20481;-50
2021/10/22 11:06:47;;;;;;;14.23;12.60;;;;;;;35.02;17.15;94669.00;4970385;28;20058;-54
2021/10/22 11:09:46;;;;;;;16.88;12.50;;;;;;;35.48;16.39;94667.53;4953169;28;20047;-55
2021/10/22 11:12:13;;;;;;;18.98;13.70;;;;;;;35.83;15.72;94662.84;4943666;29;20058;-44
2021/10/22 11:14:52;;;;;;;15.43;12.63;;;;;;;35.43;16.34;94658.00;4956856;29;20051;-48
2021/10/22 11:17:30;;;;;;;16.20;12.65;;;;;;;35.44;16.29;94662.22;4954949;28;20058;-47
2021/10/22 11:19:58;;;;;;;14.23;11.75;;;;;;;35.15;16.60;94653.47;4956399;29;20054;-46
2021/10/22 11:22:27;;;;;;;11.25;8.60;;;;;;;35.13;17.13;94655.84;4956317;29;20051;-64
2021/10/22 11:24:54;;;;;;;8.88;7.85;;;;;;;35.64;16.75;94655.72;4964157;28;20058;-51
2021/10/22 11:27:22;;;;;;;10.30;9.20;;;;;;;35.64;16.50;94656.47;4951737;28;20051;-49
2021/10/22 11:29:51;;;;;;;11.60;8.15;;;;;;;34.83;17.15;94657.91;4953587;29;20039;-57